createdAt,value
2019-04-21T00:03:21.418Z,26.60
2019-04-21T00:06:48.558Z,26.50
2019-04-21T00:10:13.122Z,26.50
2019-04-21T00:13:22.585Z,26.60
2019-04-21T00:16:32.069Z,26.60
2019-04-21T00:20:16.539Z,26.50
2019-04-21T00:23:42.439Z,26.50
2019-04-21T00:26:57.379Z,26.50
2019-04-21T00:30:26.950Z,26.50
2019-04-21T00:33:29.948Z,26.50
2019-04-21T00:36:51.512Z,26.50
2019-04-21T00:40:20.302Z,26.50
2019-04-21T00:43:28.256Z,26.50
2019-04-21T00:50:17.919Z,26.40
2019-04-21T00:53:43.548Z,26.40
2019-04-21T00:56:56.201Z,26.40
2019-04-21T01:00:11.659Z,26.40
2019-04-21T01:03:26.406Z,26.40
2019-04-21T01:06:54.418Z,26.40
2019-04-21T01:10:06.580Z,26.40
2019-04-21T01:13:36.268Z,26.40
2019-04-21T01:16:56.004Z,26.30
2019-04-21T01:20:01.195Z,26.30
2019-04-21T01:23:02.294Z,26.30
2019-04-21T01:26:39.341Z,26.40
2019-04-21T01:30:08.622Z,26.30
2019-04-21T01:33:21.605Z,26.30
2019-04-21T01:36:34.613Z,26.30
2019-04-21T01:39:53.216Z,26.30
2019-04-21T01:43:07.721Z,26.30
2019-04-21T01:46:25.940Z,26.30
2019-04-21T01:49:37.045Z,26.30
2019-04-21T01:53:02.034Z,26.30
2019-04-21T01:56:38.864Z,26.30
2019-04-21T01:59:54.329Z,26.30
2019-04-21T02:03:36.243Z,26.30
2019-04-21T02:06:33.604Z,26.30
2019-04-21T02:09:51.305Z,26.20
2019-04-21T02:13:03.223Z,26.30
2019-04-21T02:16:23.207Z,26.20
2019-04-21T02:19:35.883Z,26.20
2019-04-21T02:26:19.120Z,26.20
2019-04-21T02:29:37.661Z,26.20
2019-04-21T02:36:32.610Z,26.20
2019-04-21T02:43:00.213Z,26.20
2019-04-21T02:56:01.052Z,26.20
2019-04-21T03:06:24.834Z,26.10
2019-04-21T03:13:07.667Z,26.10
2019-04-21T03:16:23.401Z,26.10
2019-04-21T03:19:48.131Z,26.10
2019-04-21T03:22:57.304Z,26.10
2019-04-21T03:26:10.332Z,26.10
2019-04-21T03:29:28.263Z,26.00
2019-04-21T03:36:38.196Z,26.10
2019-04-21T03:39:09.455Z,26.10
2019-04-21T03:42:38.518Z,26.10
2019-04-21T03:45:51.494Z,26.10
2019-04-21T03:49:11.839Z,26.10
2019-04-21T03:52:30.245Z,26.10
2019-04-21T03:55:53.165Z,26.00
2019-04-21T03:59:12.685Z,26.00
2019-04-21T04:02:24.408Z,26.10
2019-04-21T04:12:34.359Z,26.00
2019-04-21T04:15:56.491Z,26.00
2019-04-21T04:19:09.623Z,26.00
2019-04-21T04:22:31.070Z,26.00
2019-04-21T04:25:43.762Z,26.00
2019-04-21T04:32:24.912Z,26.00
2019-04-21T04:39:29.843Z,26.00
2019-04-21T04:45:53.691Z,26.00
2019-04-21T04:49:10.987Z,26.00
2019-04-21T04:55:54.700Z,25.90
2019-04-21T05:02:33.873Z,26.00
2019-04-21T05:05:45.118Z,26.00
2019-04-21T05:09:11.343Z,25.90
2019-04-21T05:12:01.627Z,25.90
2019-04-21T05:15:17.866Z,25.90
2019-04-21T05:18:50.432Z,25.90
2019-04-21T05:21:55.383Z,25.90
2019-04-21T05:25:03.733Z,25.90
2019-04-21T05:28:16.652Z,25.90
2019-04-21T05:32:00.402Z,25.90
2019-04-21T05:35:24.447Z,25.90
2019-04-21T05:38:53.363Z,25.90
2019-04-21T05:42:00.771Z,25.90
2019-04-21T05:45:38.687Z,25.90
2019-04-21T05:48:52.313Z,25.90
2019-04-21T05:52:08.223Z,25.90
2019-04-21T05:55:40.568Z,25.90
2019-04-21T05:58:51.882Z,25.90
2019-04-21T06:02:18.443Z,25.90
2019-04-21T06:05:37.385Z,25.90
2019-04-21T06:08:46.976Z,25.90
2019-04-21T06:12:03.177Z,25.90
2019-04-21T06:15:22.448Z,25.90
2019-04-21T06:18:46.527Z,25.90
2019-04-21T06:21:51.114Z,25.90
2019-04-21T06:28:33.667Z,25.90
2019-04-21T06:35:12.473Z,25.90
2019-04-21T06:38:36.039Z,25.90
2019-04-21T06:45:04.139Z,25.80
2019-04-21T06:48:21.006Z,25.80
2019-04-21T06:51:32.273Z,25.80
2019-04-21T06:54:47.080Z,25.90
2019-04-21T06:58:07.889Z,25.90
2019-04-21T07:01:24.121Z,25.90
2019-04-21T07:04:46.857Z,25.90
2019-04-21T07:07:57.104Z,25.90
2019-04-21T07:11:08.343Z,25.90
2019-04-21T07:17:42.636Z,26.00
2019-04-21T07:21:00.096Z,25.90
2019-04-21T07:24:21.810Z,26.00
2019-04-21T07:27:35.349Z,26.00
2019-04-21T07:30:59.040Z,26.00
2019-04-21T07:37:28.135Z,26.00
2019-04-21T07:40:36.530Z,26.00
2019-04-21T07:43:57.106Z,26.00
2019-04-21T07:51:14.022Z,26.00
2019-04-21T07:54:32.035Z,26.10
2019-04-21T07:57:39.470Z,26.00
2019-04-21T08:00:51.450Z,26.00
2019-04-21T08:04:35.710Z,26.00
2019-04-21T08:07:42.126Z,26.10
2019-04-21T08:10:53.879Z,26.10
2019-04-21T08:14:11.623Z,26.10
2019-04-21T08:17:24.623Z,26.10
2019-04-21T08:20:28.888Z,26.10
2019-04-21T08:23:58.047Z,26.10
2019-04-21T08:27:10.944Z,26.10
2019-04-21T08:30:24.343Z,26.10
2019-04-21T08:33:50.335Z,26.10
2019-04-21T08:36:58.666Z,26.10
2019-04-21T08:43:40.666Z,26.10
2019-04-21T08:46:52.626Z,26.10
2019-04-21T08:50:08.478Z,26.10
2019-04-21T08:53:25.547Z,26.10
2019-04-21T08:57:06.147Z,26.10
2019-04-21T09:04:06.121Z,26.10
2019-04-21T09:07:33.073Z,26.10
2019-04-21T09:10:39.221Z,26.10
2019-04-21T09:13:54.718Z,26.10
2019-04-21T09:16:57.756Z,26.20
2019-04-21T09:20:13.853Z,26.10
2019-04-21T09:23:36.383Z,26.10
2019-04-21T09:26:36.995Z,26.10
2019-04-21T09:29:40.643Z,26.10
2019-04-21T09:32:55.026Z,26.20
2019-04-21T09:36:14.539Z,26.10
2019-04-21T09:39:29.705Z,26.20
2019-04-21T09:42:55.137Z,26.20
2019-04-21T09:46:02.302Z,26.20
2019-04-21T09:49:22.450Z,26.20
2019-04-21T09:52:41.854Z,26.20
2019-04-21T09:55:58.145Z,26.20
2019-04-21T09:59:17.975Z,26.20
2019-04-21T10:02:34.317Z,26.20
2019-04-21T10:05:45.209Z,26.20
2019-04-21T10:09:04.242Z,26.20
2019-04-21T10:12:17.487Z,26.20
2019-04-21T10:15:33.350Z,26.30
2019-04-21T10:18:50.441Z,26.30
2019-04-21T10:22:05.994Z,26.30
2019-04-21T10:25:22.692Z,26.30
2019-04-21T10:28:39.152Z,26.30
2019-04-21T10:31:55.137Z,26.30
2019-04-21T10:35:11.161Z,26.30
2019-04-21T10:38:35.485Z,26.30
2019-04-21T10:41:45.643Z,26.30
2019-04-21T10:45:01.219Z,26.30
2019-04-21T10:48:16.994Z,26.40
2019-04-21T10:51:32.902Z,26.40
2019-04-21T10:55:11.213Z,26.40
2019-04-21T10:58:11.132Z,26.40
2019-04-21T11:01:27.411Z,26.40
2019-04-21T11:08:19.083Z,26.50
2019-04-21T11:11:25.843Z,26.50
2019-04-21T11:14:43.019Z,26.50
2019-04-21T11:17:59.866Z,26.50
2019-04-21T11:21:16.667Z,26.50
2019-04-21T11:24:33.174Z,26.50
2019-04-21T11:27:49.176Z,26.50
2019-04-21T11:31:06.899Z,26.60
2019-04-21T11:34:11.324Z,26.60
2019-04-21T11:37:34.783Z,26.60
2019-04-21T11:40:51.769Z,26.60
2019-04-21T11:44:07.936Z,26.60
2019-04-21T11:47:28.615Z,26.60
2019-04-21T11:50:43.854Z,26.60
2019-04-21T11:57:28.014Z,26.70
2019-04-21T12:00:42.176Z,26.70
2019-04-21T12:03:57.975Z,26.70
2019-04-21T12:07:01.875Z,26.70
2019-04-21T12:10:24.614Z,26.80
2019-04-21T12:13:47.967Z,26.80
2019-04-21T12:17:05.557Z,26.80
2019-04-21T12:20:21.675Z,26.80
2019-04-21T12:23:38.465Z,26.80
2019-04-21T12:26:56.285Z,26.90
2019-04-21T12:30:13.751Z,26.90
2019-04-21T12:33:34.261Z,26.90
2019-04-21T12:36:38.052Z,26.90
2019-04-21T12:40:03.258Z,26.90
2019-04-21T12:43:19.194Z,27.00
2019-04-21T12:46:34.432Z,27.00
2019-04-21T12:49:49.935Z,27.00
2019-04-21T12:53:05.717Z,27.00
2019-04-21T12:56:21.023Z,27.10
2019-04-21T12:59:37.823Z,27.00
2019-04-21T13:02:54.057Z,27.10
2019-04-21T13:06:10.020Z,27.10
2019-04-21T13:09:17.979Z,27.10
2019-04-21T13:12:19.364Z,27.10
2019-04-21T13:15:22.730Z,27.10
2019-04-21T13:18:27.017Z,27.20
2019-04-21T13:21:30.414Z,27.20
2019-04-21T13:24:35.752Z,27.20
2019-04-21T13:27:58.704Z,27.30
2019-04-21T13:31:22.364Z,27.30
2019-04-21T13:34:39.974Z,27.30
2019-04-21T13:37:56.291Z,27.30
2019-04-21T13:44:41.309Z,27.40
2019-04-21T13:47:57.061Z,27.40
2019-04-21T13:51:13.402Z,27.40
2019-04-21T13:54:29.671Z,27.40
2019-04-21T13:57:46.486Z,27.50
2019-04-21T14:01:03.404Z,27.50
2019-04-21T14:04:19.866Z,27.50
2019-04-21T14:07:36.431Z,27.50
2019-04-21T14:10:51.655Z,27.50
2019-04-21T14:14:08.260Z,27.60
2019-04-21T14:17:24.677Z,27.60
2019-04-21T14:20:40.400Z,27.60
2019-04-21T14:23:58.135Z,27.60
2019-04-21T14:27:14.428Z,27.70
2019-04-21T14:30:30.515Z,27.70
2019-04-21T14:33:47.877Z,27.70
2019-04-21T14:37:04.518Z,27.70
2019-04-21T14:40:23.985Z,27.70
2019-04-21T14:43:38.405Z,27.70
2019-04-21T14:46:57.376Z,27.70
2019-04-21T14:50:15.549Z,27.80
2019-04-21T14:53:34.006Z,27.80
2019-04-21T15:00:24.750Z,27.80
2019-04-21T15:03:41.687Z,27.80
2019-04-21T15:06:57.665Z,27.80
2019-04-21T15:10:20.087Z,27.80
2019-04-21T15:13:30.314Z,27.80
2019-04-21T15:16:47.067Z,27.80
2019-04-21T15:19:58.733Z,27.90
2019-04-21T15:23:14.879Z,27.90
2019-04-21T15:26:30.478Z,27.80
2019-04-21T15:29:46.832Z,27.90
2019-04-21T15:33:04.340Z,27.90
2019-04-21T15:36:20.959Z,27.90
2019-04-21T15:39:38.331Z,27.90
2019-04-21T15:42:54.668Z,27.90
2019-04-21T15:46:11.010Z,27.90
2019-04-21T15:49:40.541Z,27.90
2019-04-21T15:52:47.532Z,28.00
2019-04-21T15:56:22.616Z,28.00
2019-04-21T15:59:42.276Z,28.00
2019-04-21T16:02:58.377Z,28.00
2019-04-21T16:06:13.890Z,28.00
2019-04-21T16:09:31.200Z,28.00
2019-04-21T16:12:47.549Z,28.00
2019-04-21T16:16:04.190Z,28.00
2019-04-21T16:19:20.225Z,28.00
2019-04-21T16:22:38.821Z,28.00
2019-04-21T16:29:39.671Z,28.00
2019-04-21T16:33:02.345Z,28.00
2019-04-21T16:36:25.485Z,28.00
2019-04-21T16:39:43.295Z,28.00
2019-04-21T16:43:00.255Z,28.00
2019-04-21T16:46:16.143Z,28.00
2019-04-21T16:49:29.787Z,28.00
2019-04-21T16:56:20.483Z,28.00
2019-04-21T17:02:58.700Z,28.00
2019-04-21T17:06:22.874Z,28.00
2019-04-21T17:09:38.983Z,28.00
2019-04-21T17:12:55.960Z,28.00
2019-04-21T17:16:40.802Z,28.00
2019-04-21T17:19:36.023Z,27.90
2019-04-21T17:22:45.770Z,28.00
2019-04-21T17:26:01.763Z,28.00
2019-04-21T17:29:18.765Z,27.90
2019-04-21T17:32:40.358Z,28.00
2019-04-21T17:35:51.279Z,27.90
2019-04-21T17:39:06.935Z,27.90
2019-04-21T17:42:29.773Z,27.90
2019-04-21T17:45:41.394Z,27.90
2019-04-21T17:48:58.922Z,27.90
2019-04-21T17:52:19.694Z,27.90
2019-04-21T17:55:40.607Z,27.90
2019-04-21T17:59:16.413Z,27.80
2019-04-21T18:02:38.531Z,27.80
2019-04-21T18:05:48.732Z,27.80
2019-04-21T18:09:18.270Z,27.80
2019-04-21T18:15:41.219Z,27.80
2019-04-21T18:18:41.150Z,27.80
2019-04-21T18:22:17.473Z,27.80
2019-04-21T18:25:45.177Z,27.70
2019-04-21T18:28:53.787Z,27.70
2019-04-21T18:32:08.459Z,27.70
2019-04-21T18:35:31.488Z,27.70
2019-04-21T18:39:04.190Z,27.70
2019-04-21T18:42:26.682Z,27.70
2019-04-21T18:45:55.368Z,27.70
2019-04-21T18:52:45.544Z,27.70
2019-04-21T18:55:55.756Z,27.70
2019-04-21T18:59:04.479Z,27.70
2019-04-21T19:02:22.302Z,27.70
2019-04-21T19:05:41.159Z,27.60
2019-04-21T19:09:10.217Z,27.60
2019-04-21T19:12:49.104Z,27.60
2019-04-21T19:15:27.218Z,27.60
2019-04-21T19:18:56.523Z,27.60
2019-04-21T19:22:21.784Z,27.60
2019-04-21T19:25:25.819Z,27.60
2019-04-21T19:28:36.230Z,27.60
2019-04-21T19:31:54.889Z,27.60
2019-04-21T19:35:04.172Z,27.60
2019-04-21T19:38:30.670Z,27.60
2019-04-21T19:41:51.001Z,27.60
2019-04-21T19:45:13.863Z,27.60
2019-04-21T19:51:31.388Z,27.60
2019-04-21T19:54:46.496Z,27.60
2019-04-21T19:58:00.862Z,27.60
2019-04-21T20:01:17.371Z,27.60
2019-04-21T20:04:40.707Z,27.60
2019-04-21T20:08:08.283Z,27.60
2019-04-21T20:11:27.111Z,27.50
2019-04-21T20:14:57.645Z,27.60
2019-04-21T20:18:00.155Z,27.60
2019-04-21T20:20:59.498Z,27.60
2019-04-21T20:24:22.472Z,27.60
2019-04-21T20:27:43.080Z,27.60
2019-04-21T20:31:08.276Z,27.50
2019-04-21T20:34:29.805Z,27.60
2019-04-21T20:37:42.437Z,27.50
2019-04-21T20:40:51.006Z,27.50
2019-04-21T20:44:19.115Z,27.60
2019-04-21T20:47:25.640Z,27.50
2019-04-21T20:50:56.221Z,27.60
2019-04-21T20:54:12.616Z,27.60
2019-04-21T20:57:26.041Z,27.60
2019-04-21T21:00:54.748Z,27.60
2019-04-21T21:03:51.811Z,27.50
2019-04-21T21:07:30.610Z,27.50
2019-04-21T21:10:34.779Z,27.50
2019-04-21T21:13:55.425Z,27.50
2019-04-21T21:17:13.068Z,27.50
2019-04-21T21:20:24.888Z,27.50
2019-04-21T21:23:42.719Z,27.40
2019-04-21T21:26:57.843Z,27.40
2019-04-21T21:30:14.531Z,27.40
2019-04-21T21:33:41.248Z,27.40
2019-04-21T21:36:47.748Z,27.40
2019-04-21T21:40:10.635Z,27.40
2019-04-21T21:43:12.892Z,27.40
2019-04-21T21:46:43.004Z,27.40
2019-04-21T21:49:55.382Z,27.30
2019-04-21T21:53:07.741Z,27.30
2019-04-21T21:56:16.862Z,27.30
2019-04-21T21:59:36.476Z,27.30
2019-04-21T22:02:53.472Z,27.30
2019-04-21T22:06:10.851Z,27.30
2019-04-21T22:09:26.167Z,27.30
2019-04-21T22:12:52.871Z,27.30
2019-04-21T22:16:03.851Z,27.30
2019-04-21T22:19:34.769Z,27.30
2019-04-21T22:22:45.135Z,27.20
2019-04-21T22:25:51.625Z,27.20
2019-04-21T22:29:07.827Z,27.20
2019-04-21T22:32:27.487Z,27.20
2019-04-21T22:35:48.914Z,27.20
2019-04-21T22:39:17.616Z,27.20
2019-04-21T22:42:22.445Z,27.20
2019-04-21T22:45:33.475Z,27.20
2019-04-21T22:48:53.118Z,27.20
2019-04-21T22:52:11.104Z,27.20
2019-04-21T22:55:31.593Z,27.10
2019-04-21T22:58:48.265Z,27.10
2019-04-21T23:05:36.349Z,27.10
2019-04-21T23:08:49.819Z,27.10
2019-04-21T23:12:05.727Z,27.00
2019-04-21T23:15:28.271Z,27.10
2019-04-21T23:18:50.442Z,27.10
2019-04-21T23:22:20.375Z,27.10
2019-04-21T23:25:32.159Z,27.00
2019-04-21T23:28:51.050Z,27.00
2019-04-21T23:32:03.487Z,27.00
2019-04-21T23:35:13.309Z,27.00
2019-04-21T23:38:29.216Z,27.00
2019-04-21T23:41:47.115Z,27.00
2019-04-21T23:44:58.542Z,27.00
2019-04-21T23:48:26.009Z,27.00
2019-04-21T23:51:40.762Z,27.00
2019-04-21T23:54:47.448Z,26.90
